Time;durP1;ratioP1;P1;durP2;ratioP2;P2;SDS_P1;SDS_P2;PMS_P1;PMS_P2;Temp;Humidity;BMP_temperature;BMP_pressure;BME280_temperature;BME280_humidity;BME280_pressure;Samples;Min_cycle;Max_cycle;Signal;HPM_P1;HPM_P2
2023/03/22 00:00:12;;;;;;;5.97;4.55;;;;;;;;;;5054208;28;20713;-68
2023/03/22 00:02:42;;;;;;;8.52;5.25;;;;;;;;;;5053799;28;20553;-69
2023/03/22 00:05:10;;;;;;;6.50;4.85;;;;;;;;;;5053528;28;20225;-69
2023/03/22 00:07:39;;;;;;;9.55;5.88;;;;;;;;;;5052548;28;20224;-68
2023/03/22 00:10:08;;;;;;;5.25;4.85;;;;;;;;;;5054453;28;20201;-68
2023/03/22 00:12:36;;;;;;;5.60;4.60;;;;;;;;;;5053870;28;20591;-69
2023/03/22 00:15:05;;;;;;;4.93;4.47;;;;;;;;;;5053776;28;20203;-69
2023/03/22 00:17:35;;;;;;;5.35;4.80;;;;;;;;;;5053919;28;20204;-69
2023/03/22 00:20:06;;;;;;;5.22;4.72;;;;;;;;;;5053923;28;20225;-69
2023/03/22 00:22:34;;;;;;;6.18;5.10;;;;;;;;;;5042992;28;20403;-69
2023/03/22 00:25:02;;;;;;;5.70;5.22;;;;;;;;;;5051399;28;20541;-69
2023/03/22 00:27:30;;;;;;;6.38;5.28;;;;;;;;;;5053724;28;20207;-69
2023/03/22 00:29:59;;;;;;;5.25;4.78;;;;;;;;;;5053880;28;20698;-69
2023/03/22 00:32:27;;;;;;;7.22;5.68;;;;;;;;;;5044834;28;20733;-69
2023/03/22 00:34:55;;;;;;;7.13;5.20;;;;;;;;;;5053906;28;20203;-69
2023/03/22 00:37:26;;;;;;;5.78;4.88;;;;;;;;;;5053537;28;20682;-68
2023/03/22 00:39:54;;;;;;;5.60;5.05;;;;;;;;;;5049066;28;20561;-69
2023/03/22 00:42:23;;;;;;;5.47;4.97;;;;;;;;;;5045584;28;20201;-69
2023/03/22 00:44:51;;;;;;;5.28;4.88;;;;;;;;;;5048716;28;20229;-69
2023/03/22 00:47:19;;;;;;;9.02;4.85;;;;;;;;;;5048877;28;20197;-69
2023/03/22 00:49:47;;;;;;;6.13;5.53;;;;;;;;;;5042821;28;20204;-69
2023/03/22 00:52:16;;;;;;;5.22;4.72;;;;;;;;;;5040821;28;20216;-68
2023/03/22 00:54:46;;;;;;;9.18;4.30;;;;;;;;;;5044237;28;20639;-69
2023/03/22 00:57:15;;;;;;;5.22;4.85;;;;;;;;;;5039801;28;20201;-68
2023/03/22 00:59:43;;;;;;;5.00;4.50;;;;;;;;;;5048174;28;20205;-68
2023/03/22 01:02:12;;;;;;;5.15;4.25;;;;;;;;;;5047834;28;20193;-69
2023/03/22 01:04:45;;;;;;;5.97;4.88;;;;;;;;;;5040782;28;20232;-68
2023/03/22 01:07:16;;;;;;;5.03;4.53;;;;;;;;;;5043224;28;20196;-68
2023/03/22 01:09:46;;;;;;;6.20;5.53;;;;;;;;;;5047208;28;20196;-69
2023/03/22 01:12:16;;;;;;;5.10;4.60;;;;;;;;;;5052872;28;20563;-69
2023/03/22 01:14:44;;;;;;;5.93;5.30;;;;;;;;;;5046505;28;20622;-69
2023/03/22 01:17:13;;;;;;;6.18;5.22;;;;;;;;;;5039282;28;20644;-69
2023/03/22 01:19:41;;;;;;;6.07;5.40;;;;;;;;;;5040902;28;20198;-69
2023/03/22 01:22:09;;;;;;;10.05;5.70;;;;;;;;;;5043386;28;20253;-68
2023/03/22 01:24:38;;;;;;;6.50;5.60;;;;;;;;;;5037974;28;20549;-69
2023/03/22 01:27:07;;;;;;;5.90;5.40;;;;;;;;;;5043764;28;20209;-69
2023/03/22 01:29:36;;;;;;;5.90;5.30;;;;;;;;;;5039303;28;20614;-69
2023/03/22 01:32:04;;;;;;;6.97;5.00;;;;;;;;;;5037616;28;20205;-69
2023/03/22 01:34:32;;;;;;;5.93;5.43;;;;;;;;;;5048806;28;20209;-69
2023/03/22 01:37:02;;;;;;;6.75;5.63;;;;;;;;;;5051100;28;20204;-69
2023/03/22 01:39:30;;;;;;;6.60;5.75;;;;;;;;;;5041573;28;20205;-69
2023/03/22 01:42:02;;;;;;;6.88;6.00;;;;;;;;;;5037015;28;20197;-69
2023/03/22 01:44:32;;;;;;;6.05;5.55;;;;;;;;;;5030734;28;20197;-69
2023/03/22 01:47:03;;;;;;;10.35;5.88;;;;;;;;;;5030843;28;20600;-69
2023/03/22 01:49:33;;;;;;;6.10;5.50;;;;;;;;;;5033280;28;20682;-69
2023/03/22 01:52:03;;;;;;;6.50;5.50;;;;;;;;;;5049848;28;20226;-69
2023/03/22 01:54:48;;;;;;;10.07;5.90;;;;;;;;;;5042592;28;20195;-69
2023/03/22 01:57:36;;;;;;;9.90;6.85;;;;;;;;;;5050206;28;20302;-68
2023/03/22 02:00:09;;;;;;;7.00;6.25;;;;;;;;;;5050397;28;20192;-68
2023/03/22 02:03:01;;;;;;;6.80;5.40;;;;;;;;;;5033582;28;20660;-67
2023/03/22 02:05:36;;;;;;;8.43;6.93;;;;;;;;;;5039186;28;20290;-67
2023/03/22 02:08:07;;;;;;;6.68;5.97;;;;;;;;;;5030788;28;20197;-67
2023/03/22 02:10:53;;;;;;;8.98;6.53;;;;;;;;;;5045128;28;20203;-67
2023/03/22 02:13:32;;;;;;;8.48;7.10;;;;;;;;;;5049355;28;20571;-67
2023/03/22 02:16:26;;;;;;;6.53;5.90;;;;;;;;;;5037184;28;20671;-67
2023/03/22 02:19:07;;;;;;;8.77;6.43;;;;;;;;;;5048032;28;20192;-67
2023/03/22 02:21:59;;;;;;;7.53;6.75;;;;;;;;;;5032561;28;20204;-67
2023/03/22 02:24:45;;;;;;;7.60;6.30;;;;;;;;;;5022688;28;20201;-68
2023/03/22 02:27:31;;;;;;;8.38;7.07;;;;;;;;;;5050253;28;20234;-67
2023/03/22 02:30:07;;;;;;;7.50;6.45;;;;;;;;;;5035120;28;20221;-67
2023/03/22 02:32:51;;;;;;;7.40;6.70;;;;;;;;;;5043286;28;20196;-67
2023/03/22 02:35:26;;;;;;;7.68;6.68;;;;;;;;;;5050759;28;20207;-67
2023/03/22 02:38:13;;;;;;;6.78;6.07;;;;;;;;;;5048551;28;20199;-67
2023/03/22 02:40:47;;;;;;;6.93;6.05;;;;;;;;;;5041487;28;20201;-66
2023/03/22 02:43:19;;;;;;;7.63;6.82;;;;;;;;;;5035923;28;20644;-66
2023/03/22 02:45:49;;;;;;;5.95;5.30;;;;;;;;;;5030105;28;20282;-66
2023/03/22 02:48:18;;;;;;;6.43;5.93;;;;;;;;;;5021165;28;20214;-66
2023/03/22 02:50:52;;;;;;;7.82;6.55;;;;;;;;;;5050101;28;20204;-66
2023/03/22 02:53:22;;;;;;;7.00;5.82;;;;;;;;;;5044940;28;20196;-66
2023/03/22 02:55:54;;;;;;;7.15;6.38;;;;;;;;;;5049517;28;20712;-67
2023/03/22 02:58:26;;;;;;;7.75;6.85;;;;;;;;;;5051358;28;20184;-66
2023/03/22 03:00:57;;;;;;;9.05;6.35;;;;;;;;;;5051060;28;20200;-66
2023/03/22 03:03:28;;;;;;;7.97;7.15;;;;;;;;;;5051066;28;20211;-66
2023/03/22 03:05:58;;;;;;;9.18;6.15;;;;;;;;;;5050606;28;20219;-66
2023/03/22 03:08:27;;;;;;;10.63;6.82;;;;;;;;;;5051055;28;20204;-66
2023/03/22 03:10:58;;;;;;;7.88;6.50;;;;;;;;;;5050059;28;20213;-66
2023/03/22 03:13:26;;;;;;;6.82;5.88;;;;;;;;;;5049748;28;20212;-66
2023/03/22 03:15:57;;;;;;;6.70;5.90;;;;;;;;;;5050414;28;20197;-66
2023/03/22 03:18:39;;;;;;;6.15;5.53;;;;;;;;;;5049636;28;20192;-66
2023/03/22 03:21:09;;;;;;;7.32;6.10;;;;;;;;;;5051301;28;20188;-67
2023/03/22 03:23:40;;;;;;;6.63;6.03;;;;;;;;;;5051034;28;20200;-66
2023/03/22 03:26:13;;;;;;;9.40;5.85;;;;;;;;;;5051276;28;20219;-67
2023/03/22 03:28:48;;;;;;;6.82;5.85;;;;;;;;;;5039890;28;21464;-67
2023/03/22 03:31:26;;;;;;;6.13;5.63;;;;;;;;;;5053770;28;20212;-67
2023/03/22 03:33:58;;;;;;;8.27;6.38;;;;;;;;;;5041088;28;20200;-67
2023/03/22 03:36:27;;;;;;;7.53;6.82;;;;;;;;;;5055294;28;20662;-68
2023/03/22 03:38:56;;;;;;;7.05;6.18;;;;;;;;;;5054473;28;20218;-67
2023/03/22 03:41:29;;;;;;;9.85;7.25;;;;;;;;;;5055544;28;20249;-67
2023/03/22 03:43:58;;;;;;;6.68;6.03;;;;;;;;;;5054159;28;20208;-67
2023/03/22 03:46:28;;;;;;;10.13;8.90;;;;;;;;;;5054387;28;20856;-67
2023/03/22 03:48:57;;;;;;;10.10;9.10;;;;;;;;;;5053095;28;20232;-67
2023/03/22 03:51:27;;;;;;;16.63;14.82;;;;;;;;;;5054330;28;20728;-67
2023/03/22 03:53:55;;;;;;;15.65;7.57;;;;;;;;;;5052562;28;20208;-67
2023/03/22 03:56:24;;;;;;;6.90;6.30;;;;;;;;;;5033481;28;20221;-66
2023/03/22 03:58:55;;;;;;;8.05;5.65;;;;;;;;;;5042353;28;20207;-67
2023/03/22 04:01:25;;;;;;;7.60;6.72;;;;;;;;;;5046969;28;20219;-66
2023/03/22 04:04:00;;;;;;;9.15;7.00;;;;;;;;;;5052189;28;20196;-67
2023/03/22 04:06:46;;;;;;;9.27;6.03;;;;;;;;;;5053607;28;20222;-67
2023/03/22 04:09:19;;;;;;;7.95;5.80;;;;;;;;;;5052680;28;20208;-67
2023/03/22 04:11:54;;;;;;;7.85;6.20;;;;;;;;;;5053080;28;20218;-67
2023/03/22 04:14:24;;;;;;;10.93;7.82;;;;;;;;;;5052898;28;20213;-67
2023/03/22 04:16:54;;;;;;;8.05;6.70;;;;;;;;;;5052732;28;20627;-67
2023/03/22 04:19:25;;;;;;;5.82;5.25;;;;;;;;;;5054035;28;20197;-67
2023/03/22 04:21:53;;;;;;;10.30;5.82;;;;;;;;;;5053963;28;20694;-68
2023/03/22 04:24:22;;;;;;;9.55;6.00;;;;;;;;;;5052041;28;20209;-67
2023/03/22 04:26:53;;;;;;;7.85;6.30;;;;;;;;;;5052805;28;20219;-67
2023/03/22 04:29:35;;;;;;;7.47;5.95;;;;;;;;;;5052567;28;20232;-66
2023/03/22 04:32:25;;;;;;;7.90;6.05;;;;;;;;;;5035778;28;20203;-67
2023/03/22 04:34:55;;;;;;;9.88;6.70;;;;;;;;;;5052602;28;20189;-67
2023/03/22 04:37:25;;;;;;;7.95;6.60;;;;;;;;;;5052250;28;20258;-67
2023/03/22 04:39:58;;;;;;;6.47;5.65;;;;;;;;;;5053330;28;20549;-67
2023/03/22 04:42:42;;;;;;;10.80;5.75;;;;;;;;;;5053121;28;20610;-67
2023/03/22 04:45:19;;;;;;;9.95;6.10;;;;;;;;;;5032523;28;20225;-68
2023/03/22 04:47:54;;;;;;;6.47;5.88;;;;;;;;;;5032175;28;20213;-67
2023/03/22 04:50:23;;;;;;;6.18;5.18;;;;;;;;;;5032277;28;20721;-67
2023/03/22 04:52:57;;;;;;;9.10;6.53;;;;;;;;;;5015882;28;20189;-67
2023/03/22 04:55:26;;;;;;;7.13;6.47;;;;;;;;;;5042948;28;20197;-67
2023/03/22 04:57:55;;;;;;;7.10;6.40;;;;;;;;;;5051913;28;20667;-67
2023/03/22 05:00:29;;;;;;;13.80;6.75;;;;;;;;;;5051771;28;20525;-64
2023/03/22 05:02:58;;;;;;;8.35;5.88;;;;;;;;;;5051152;28;20196;-67
2023/03/22 05:05:51;;;;;;;10.05;6.35;;;;;;;;;;5051439;28;20207;-67
2023/03/22 05:08:20;;;;;;;7.10;6.38;;;;;;;;;;5050517;28;20262;-67
2023/03/22 05:10:51;;;;;;;7.05;6.45;;;;;;;;;;5044804;28;20554;-67
2023/03/22 05:13:19;;;;;;;6.97;6.28;;;;;;;;;;5041391;28;20692;-67
2023/03/22 05:15:50;;;;;;;10.13;6.72;;;;;;;;;;5052907;28;20214;-67
2023/03/22 05:18:25;;;;;;;7.72;6.65;;;;;;;;;;5050815;28;20246;-67
2023/03/22 05:20:56;;;;;;;8.05;7.15;;;;;;;;;;5047399;28;20199;-67
2023/03/22 05:23:26;;;;;;;8.57;6.47;;;;;;;;;;5048111;28;20283;-68
2023/03/22 05:26:00;;;;;;;6.50;6.00;;;;;;;;;;5051578;28;20207;-68
2023/03/22 05:28:28;;;;;;;9.35;6.47;;;;;;;;;;5046842;28;20697;-68
2023/03/22 05:31:21;;;;;;;6.88;6.28;;;;;;;;;;5032213;28;20211;-67
2023/03/22 05:33:56;;;;;;;6.15;5.55;;;;;;;;;;5051541;28;20218;-67
2023/03/22 05:36:28;;;;;;;6.55;5.95;;;;;;;;;;5051072;28;20192;-68
2023/03/22 05:39:19;;;;;;;6.93;6.20;;;;;;;;;;5051998;28;20193;-67
2023/03/22 05:41:48;;;;;;;7.68;5.80;;;;;;;;;;5051493;28;20212;-67
2023/03/22 05:44:16;;;;;;;5.75;5.20;;;;;;;;;;5046111;28;20196;-68
2023/03/22 05:47:06;;;;;;;9.85;6.28;;;;;;;;;;5032074;28;20594;-67
2023/03/22 05:49:37;;;;;;;5.78;5.28;;;;;;;;;;5032488;28;20197;-68
2023/03/22 05:52:06;;;;;;;8.57;6.68;;;;;;;;;;5041123;28;20571;-67
2023/03/22 05:54:52;;;;;;;6.68;5.53;;;;;;;;;;5046904;28;20716;-67
2023/03/22 05:57:21;;;;;;;7.13;5.07;;;;;;;;;;5046672;28;20219;-67
2023/03/22 05:59:52;;;;;;;6.38;5.05;;;;;;;;;;5032014;28;20221;-67
2023/03/22 06:02:26;;;;;;;5.88;5.25;;;;;;;;;;5039516;28;20208;-67
2023/03/22 06:04:55;;;;;;;11.65;5.82;;;;;;;;;;5047279;28;20227;-67
2023/03/22 06:07:24;;;;;;;7.63;5.97;;;;;;;;;;5067861;28;20215;-68
2023/03/22 06:09:58;;;;;;;6.57;5.88;;;;;;;;;;5048949;28;20189;-67
2023/03/22 06:12:28;;;;;;;6.30;5.22;;;;;;;;;;5038304;28;20193;-67
2023/03/22 06:15:03;;;;;;;5.68;5.05;;;;;;;;;;5048265;28;20192;-67
2023/03/22 06:18:02;;;;;;;12.60;6.50;;;;;;;;;;5045845;28;20191;-67
2023/03/22 06:20:35;;;;;;;9.32;5.30;;;;;;;;;;5040769;28;20523;-67
2023/03/22 06:23:09;;;;;;;9.38;5.90;;;;;;;;;;5049200;28;20196;-67
2023/03/22 06:25:40;;;;;;;13.07;5.70;;;;;;;;;;5045910;28;20193;-67
2023/03/22 06:28:08;;;;;;;8.35;6.25;;;;;;;;;;5041432;28;20577;-67
2023/03/22 06:30:37;;;;;;;9.73;5.25;;;;;;;;;;5041056;28;20236;-67
2023/03/22 06:33:24;;;;;;;6.70;6.05;;;;;;;;;;5044903;28;20205;-67
2023/03/22 06:36:01;;;;;;;9.23;5.97;;;;;;;;;;5050375;28;20214;-67
2023/03/22 06:38:37;;;;;;;5.75;5.25;;;;;;;;;;5036272;28;20193;-67
2023/03/22 06:41:05;;;;;;;5.25;4.75;;;;;;;;;;5048256;28;20599;-67
2023/03/22 06:43:34;;;;;;;5.53;5.13;;;;;;;;;;5037362;28;20655;-67
2023/03/22 06:46:14;;;;;;;8.55;4.80;;;;;;;;;;5045656;28;20219;-67
2023/03/22 06:48:50;;;;;;;6.55;5.32;;;;;;;;;;5056928;28;20206;-67
2023/03/22 06:51:18;;;;;;;7.00;5.80;;;;;;;;;;5059525;28;20210;-68
2023/03/22 06:53:47;;;;;;;11.63;5.97;;;;;;;;;;5053077;28;20203;-68
2023/03/22 06:56:15;;;;;;;6.35;5.78;;;;;;;;;;5056946;28;20720;-67
2023/03/22 06:58:50;;;;;;;8.98;5.50;;;;;;;;;;5066859;28;20192;-67
2023/03/22 07:01:19;;;;;;;5.20;4.80;;;;;;;;;;5051058;28;20204;-67
2023/03/22 07:03:47;;;;;;;9.70;5.38;;;;;;;;;;5041744;28;20236;-67
2023/03/22 07:06:18;;;;;;;6.03;5.43;;;;;;;;;;5043703;28;20230;-68
2023/03/22 07:08:50;;;;;;;5.20;4.70;;;;;;;;;;5047108;28;20639;-67
2023/03/22 07:11:24;;;;;;;5.60;5.07;;;;;;;;;;5052946;28;20193;-68
2023/03/22 07:13:58;;;;;;;8.50;5.05;;;;;;;;;;5048713;28;20534;-67
2023/03/22 07:16:30;;;;;;;5.55;4.38;;;;;;;;;;5053336;28;20219;-67
2023/03/22 07:19:01;;;;;;;9.60;5.65;;;;;;;;;;5052061;28;20200;-67
2023/03/22 07:21:30;;;;;;;7.20;5.30;;;;;;;;;;5054140;28;20216;-68
2023/03/22 07:24:03;;;;;;;4.72;4.30;;;;;;;;;;5022422;28;20455;-68
2023/03/22 07:26:33;;;;;;;5.72;4.85;;;;;;;;;;5052212;28;20188;-68
2023/03/22 07:29:03;;;;;;;7.40;5.10;;;;;;;;;;5053209;28;20579;-67
2023/03/22 07:31:35;;;;;;;8.43;4.07;;;;;;;;;;5037442;28;20647;-68
2023/03/22 07:34:10;;;;;;;4.93;4.43;;;;;;;;;;5024722;28;20655;-68
2023/03/22 07:36:50;;;;;;;6.18;5.30;;;;;;;;;;5052033;28;20530;-66
2023/03/22 07:39:18;;;;;;;6.07;5.47;;;;;;;;;;5054575;28;20213;-67
2023/03/22 07:41:49;;;;;;;5.60;4.35;;;;;;;;;;5035536;28;20193;-67
2023/03/22 07:44:26;;;;;;;9.75;5.55;;;;;;;;;;5034412;28;20185;-67
2023/03/22 07:47:18;;;;;;;5.28;4.65;;;;;;;;;;5032657;28;20620;-67
2023/03/22 07:50:13;;;;;;;8.73;4.70;;;;;;;;;;5042496;28;20205;-67
2023/03/22 07:52:44;;;;;;;5.32;4.90;;;;;;;;;;5045866;28;20259;-68
2023/03/22 07:55:14;;;;;;;6.40;4.93;;;;;;;;;;5037165;28;20319;-68
2023/03/22 07:57:43;;;;;;;6.28;4.88;;;;;;;;;;5054228;28;20638;-68
2023/03/22 08:00:12;;;;;;;5.15;4.70;;;;;;;;;;5048249;28;20211;-67
2023/03/22 08:03:06;;;;;;;6.10;4.43;;;;;;;;;;5043605;28;20199;-66
2023/03/22 08:05:53;;;;;;;5.28;4.82;;;;;;;;;;5044787;28;20520;-65
2023/03/22 08:08:23;;;;;;;7.30;4.43;;;;;;;;;;5044202;28;20230;-65
2023/03/22 08:10:52;;;;;;;5.32;4.43;;;;;;;;;;5054173;28;20533;-66
2023/03/22 08:13:20;;;;;;;6.00;4.53;;;;;;;;;;5027937;28;20254;-66
2023/03/22 08:15:49;;;;;;;8.10;5.30;;;;;;;;;;5051734;28;20204;-66
2023/03/22 08:18:20;;;;;;;5.30;4.80;;;;;;;;;;5045925;28;20844;-67
2023/03/22 08:20:53;;;;;;;4.77;4.27;;;;;;;;;;5052507;28;20602;-67
2023/03/22 08:23:22;;;;;;;4.80;4.30;;;;;;;;;;5037771;28;20615;-66
2023/03/22 08:26:14;;;;;;;10.32;4.90;;;;;;;;;;5035006;28;20598;-66
2023/03/22 08:28:42;;;;;;;7.75;4.85;;;;;;;;;;5034709;28;20840;-66
2023/03/22 08:31:12;;;;;;;5.43;4.70;;;;;;;;;;5043535;28;20189;-67
2023/03/22 08:33:40;;;;;;;5.07;4.63;;;;;;;;;;5038525;28;21531;-67
2023/03/22 08:36:10;;;;;;;7.60;5.00;;;;;;;;;;5051593;28;20593;-68
2023/03/22 08:38:45;;;;;;;8.33;4.77;;;;;;;;;;5041785;28;21174;-67
2023/03/22 08:41:20;;;;;;;4.60;4.20;;;;;;;;;;5034195;28;20554;-66
2023/03/22 08:43:48;;;;;;;5.60;4.47;;;;;;;;;;5033686;28;20628;-66
2023/03/22 08:46:16;;;;;;;5.00;4.60;;;;;;;;;;5038770;28;21010;-67
2023/03/22 08:48:49;;;;;;;5.63;4.67;;;;;;;;;;5042764;28;20626;-67
2023/03/22 08:51:22;;;;;;;4.33;4.00;;;;;;;;;;5050825;28;20663;-67
2023/03/22 08:54:02;;;;;;;4.93;3.70;;;;;;;;;;5052156;28;20607;-67
2023/03/22 08:56:52;;;;;;;4.53;3.93;;;;;;;;;;5030267;28;20595;-67
2023/03/22 08:59:56;;;;;;;4.07;3.77;;;;;;;;;;5050782;28;20638;-67
2023/03/22 09:02:37;;;;;;;3.70;3.40;;;;;;;;;;5042551;28;20615;-67
2023/03/22 09:05:05;;;;;;;4.50;3.53;;;;;;;;;;5052877;28;20628;-67
2023/03/22 09:07:34;;;;;;;4.13;3.83;;;;;;;;;;5051234;28;20597;-67
2023/03/22 09:10:11;;;;;;;3.93;3.60;;;;;;;;;;5038290;28;20615;-67
2023/03/22 09:12:44;;;;;;;6.57;3.70;;;;;;;;;;5044904;28;20607;-67
2023/03/22 09:15:12;;;;;;;3.93;3.43;;;;;;;;;;5044958;28;21152;-67
2023/03/22 09:17:44;;;;;;;3.90;3.60;;;;;;;;;;5050392;28;20950;-67
2023/03/22 09:20:12;;;;;;;4.63;3.60;;;;;;;;;;5049204;28;20631;-66
2023/03/22 09:22:43;;;;;;;6.00;3.70;;;;;;;;;;5040284;28;20582;-68
2023/03/22 09:25:13;;;;;;;4.40;4.00;;;;;;;;;;5039687;28;21158;-67
2023/03/22 09:27:46;;;;;;;6.57;3.50;;;;;;;;;;5049041;28;20973;-67
2023/03/22 09:30:14;;;;;;;4.20;3.90;;;;;;;;;;5046827;28;20702;-66
2023/03/22 09:32:43;;;;;;;4.50;4.10;;;;;;;;;;5046084;28;20632;-67
2023/03/22 09:35:14;;;;;;;4.20;3.83;;;;;;;;;;5051999;28;20619;-67
2023/03/22 09:37:58;;;;;;;3.60;3.33;;;;;;;;;;5052015;28;20585;-67
2023/03/22 09:40:28;;;;;;;4.00;3.63;;;;;;;;;;5052028;28;20607;-67
2023/03/22 09:43:00;;;;;;;3.63;3.43;;;;;;;;;;5044126;28;20653;-66
2023/03/22 09:45:36;;;;;;;3.70;3.50;;;;;;;;;;5035623;28;20664;-67
2023/03/22 09:48:08;;;;;;;4.50;4.10;;;;;;;;;;5045633;28;20617;-68
2023/03/22 09:50:41;;;;;;;3.90;3.60;;;;;;;;;;5044675;28;20663;-66
2023/03/22 09:53:12;;;;;;;4.23;4.03;;;;;;;;;;5036948;28;20581;-67
2023/03/22 09:55:44;;;;;;;4.53;3.93;;;;;;;;;;5053347;28;20585;-67
2023/03/22 09:58:18;;;;;;;4.23;4.03;;;;;;;;;;5051795;28;20606;-68
2023/03/22 10:00:48;;;;;;;5.30;3.90;;;;;;;;;;5053244;28;20848;-67
2023/03/22 10:03:21;;;;;;;3.57;3.37;;;;;;;;;;5052692;28;21112;-67
2023/03/22 10:05:52;;;;;;;3.37;3.17;;;;;;;;;;5051984;28;20587;-67
2023/03/22 10:08:39;;;;;;;6.57;3.67;;;;;;;;;;5051112;28;20586;-67
2023/03/22 10:11:12;;;;;;;3.57;3.47;;;;;;;;;;5052047;28;20605;-67
2023/03/22 10:13:43;;;;;;;3.37;3.27;;;;;;;;;;5051392;28;21145;-67
2023/03/22 10:16:12;;;;;;;4.60;3.47;;;;;;;;;;5053284;28;20582;-66
2023/03/22 10:18:45;;;;;;;3.70;3.50;;;;;;;;;;5051802;28;20623;-66
2023/03/22 10:21:14;;;;;;;3.60;3.40;;;;;;;;;;5051941;28;20575;-66
2023/03/22 10:23:46;;;;;;;3.50;3.30;;;;;;;;;;5052043;28;20619;-67
2023/03/22 10:26:19;;;;;;;5.23;4.20;;;;;;;;;;5051668;28;20595;-68
2023/03/22 10:28:50;;;;;;;4.13;3.70;;;;;;;;;;5051858;28;20654;-68
2023/03/22 10:31:20;;;;;;;3.97;3.87;;;;;;;;;;5050377;28;20603;-67
2023/03/22 10:33:52;;;;;;;4.10;3.90;;;;;;;;;;5039349;28;20620;-67
2023/03/22 10:36:22;;;;;;;4.90;4.70;;;;;;;;;;5036015;28;21218;-71
2023/03/22 10:38:52;;;;;;;4.27;4.00;;;;;;;;;;5045790;28;20619;-67
2023/03/22 10:41:22;;;;;;;3.90;3.70;;;;;;;;;;5034518;28;20574;-67
2023/03/22 10:43:53;;;;;;;4.93;4.37;;;;;;;;;;5046237;28;20638;-68
2023/03/22 10:46:23;;;;;;;4.23;4.13;;;;;;;;;;5050499;28;21514;-67
2023/03/22 10:48:53;;;;;;;4.20;3.90;;;;;;;;;;5051345;28;20631;-67
2023/03/22 10:51:25;;;;;;;4.40;4.20;;;;;;;;;;5042838;28;20646;-67
2023/03/22 10:53:56;;;;;;;4.67;4.47;;;;;;;;;;5051291;28;21132;-66
2023/03/22 10:56:25;;;;;;;4.70;4.40;;;;;;;;;;5041001;28;20614;-66
2023/03/22 10:58:55;;;;;;;4.50;4.20;;;;;;;;;;5052721;28;20611;-67
2023/03/22 11:01:28;;;;;;;5.03;4.73;;;;;;;;;;5052631;28;20609;-66
2023/03/22 11:03:58;;;;;;;4.47;4.20;;;;;;;;;;5044751;28;20620;-66
2023/03/22 11:06:28;;;;;;;4.40;4.20;;;;;;;;;;5040512;28;20630;-66
2023/03/22 11:08:58;;;;;;;4.97;4.70;;;;;;;;;;5064426;28;21216;-66
2023/03/22 11:11:28;;;;;;;5.10;4.70;;;;;;;;;;5055758;28;20672;-66
2023/03/22 11:14:00;;;;;;;5.13;4.93;;;;;;;;;;5062277;28;20637;-66
2023/03/22 11:16:29;;;;;;;4.90;4.63;;;;;;;;;;5059439;28;20615;-66
2023/03/22 11:18:58;;;;;;;5.13;4.93;;;;;;;;;;5052922;28;21177;-66
2023/03/22 11:21:29;;;;;;;4.67;4.50;;;;;;;;;;5057306;28;20624;-66
2023/03/22 11:23:59;;;;;;;5.70;5.40;;;;;;;;;;5042389;28;20669;-66
2023/03/22 11:26:29;;;;;;;5.33;5.03;;;;;;;;;;5045663;28;20642;-67
2023/03/22 11:29:05;;;;;;;5.10;4.90;;;;;;;;;;5033874;28;20717;-67
2023/03/22 11:31:48;;;;;;;5.80;5.57;;;;;;;;;;5052505;28;20670;-67
2023/03/22 11:34:17;;;;;;;5.90;5.50;;;;;;;;;;5058196;28;21145;-67
2023/03/22 11:36:51;;;;;;;6.30;5.70;;;;;;;;;;5060588;28;20940;-67
2023/03/22 11:39:20;;;;;;;6.10;5.90;;;;;;;;;;5062215;28;20594;-67
2023/03/22 11:41:49;;;;;;;6.53;6.30;;;;;;;;;;5071232;28;20618;-68
2023/03/22 11:44:21;;;;;;;6.83;6.53;;;;;;;;;;5063916;28;20627;-67
2023/03/22 11:46:53;;;;;;;7.70;7.30;;;;;;;;;;5049457;28;21175;-68
2023/03/22 11:49:23;;;;;;;8.00;7.70;;;;;;;;;;5042978;28;20640;-68
2023/03/22 11:51:52;;;;;;;7.10;6.90;;;;;;;;;;5034912;28;20600;-67
2023/03/22 11:54:25;;;;;;;7.13;6.83;;;;;;;;;;5034514;28;20626;-67
2023/03/22 11:56:56;;;;;;;6.90;6.70;;;;;;;;;;5038035;28;20673;-67
2023/03/22 11:59:27;;;;;;;7.80;7.60;;;;;;;;;;5043522;28;20625;-68
2023/03/22 12:01:58;;;;;;;7.97;7.67;;;;;;;;;;5037422;28;20604;-67
2023/03/22 12:04:27;;;;;;;6.73;6.43;;;;;;;;;;5042150;28;20702;-67
2023/03/22 12:06:57;;;;;;;6.90;6.70;;;;;;;;;;5041894;28;20622;-67
2023/03/22 12:09:28;;;;;;;7.50;7.20;;;;;;;;;;5054459;28;20619;-67
2023/03/22 12:11:58;;;;;;;7.17;6.90;;;;;;;;;;5048555;28;20606;-68
2023/03/22 12:14:29;;;;;;;7.43;7.00;;;;;;;;;;5051440;28;21075;-67
2023/03/22 12:16:59;;;;;;;7.37;6.97;;;;;;;;;;5047140;28;20612;-67
2023/03/22 12:19:36;;;;;;;7.67;7.30;;;;;;;;;;5041744;28;20685;-68
2023/03/22 12:22:09;;;;;;;7.70;7.30;;;;;;;;;;5039761;28;20622;-66
2023/03/22 12:24:38;;;;;;;7.73;7.23;;;;;;;;;;5044321;28;21177;-66
2023/03/22 12:27:13;;;;;;;7.60;7.20;;;;;;;;;;5036963;28;20627;-66
2023/03/22 12:29:46;;;;;;;7.80;7.40;;;;;;;;;;5044178;28;21220;-66
2023/03/22 12:32:18;;;;;;;7.37;7.17;;;;;;;;;;5045519;28;20611;-67
2023/03/22 12:34:48;;;;;;;8.17;7.87;;;;;;;;;;5043794;28;20626;-66
2023/03/22 12:37:19;;;;;;;8.30;7.90;;;;;;;;;;5043743;28;20614;-67
2023/03/22 12:39:48;;;;;;;8.20;7.90;;;;;;;;;;5040686;28;20660;-67
2023/03/22 12:42:21;;;;;;;7.70;7.50;;;;;;;;;;5045825;28;20630;-67
2023/03/22 12:44:52;;;;;;;8.40;8.00;;;;;;;;;;5055136;28;20645;-66
2023/03/22 12:47:23;;;;;;;8.37;8.07;;;;;;;;;;5039514;28;20622;-66
2023/03/22 12:49:54;;;;;;;8.00;7.77;;;;;;;;;;5054138;28;21239;-66
2023/03/22 12:52:26;;;;;;;8.27;8.00;;;;;;;;;;5055006;28;20586;-66
2023/03/22 12:54:55;;;;;;;7.50;7.20;;;;;;;;;;5054590;28;20598;-67
2023/03/22 12:57:23;;;;;;;9.37;8.90;;;;;;;;;;5034837;28;20631;-67
2023/03/22 12:59:54;;;;;;;8.37;8.03;;;;;;;;;;5043853;28;20612;-67
2023/03/22 13:02:26;;;;;;;8.00;7.60;;;;;;;;;;5035194;28;20620;-67
2023/03/22 13:04:55;;;;;;;7.57;7.27;;;;;;;;;;5032626;28;21226;-67
2023/03/22 13:07:47;;;;;;;7.90;7.50;;;;;;;;;;5036651;28;20640;-67
2023/03/22 13:10:35;;;;;;;7.10;6.90;;;;;;;;;;5025044;28;21003;-67
2023/03/22 13:13:11;;;;;;;7.93;7.53;;;;;;;;;;5039095;28;21044;-67
2023/03/22 13:15:52;;;;;;;7.67;7.37;;;;;;;;;;5041304;28;20614;-66
2023/03/22 13:18:28;;;;;;;7.23;6.90;;;;;;;;;;5030586;28;20607;-66
2023/03/22 13:21:10;;;;;;;7.30;7.10;;;;;;;;;;5030784;28;20673;-67
2023/03/22 13:23:53;;;;;;;7.23;6.97;;;;;;;;;;5036336;28;21266;-67
2023/03/22 13:26:23;;;;;;;7.40;7.20;;;;;;;;;;5041342;28;20609;-66
2023/03/22 13:28:58;;;;;;;8.33;7.93;;;;;;;;;;5041876;28;20661;-66
2023/03/22 13:31:38;;;;;;;7.80;7.60;;;;;;;;;;5042838;28;20703;-67
2023/03/22 13:34:13;;;;;;;7.80;7.50;;;;;;;;;;5042067;28;20671;-66
2023/03/22 13:36:49;;;;;;;8.03;7.83;;;;;;;;;;5039035;28;21132;-67
2023/03/22 13:39:18;;;;;;;8.10;7.80;;;;;;;;;;5044365;28;20599;-67
2023/03/22 13:41:48;;;;;;;7.93;7.73;;;;;;;;;;5052724;28;20623;-68
2023/03/22 13:44:21;;;;;;;8.40;8.10;;;;;;;;;;5040437;28;20629;-68
2023/03/22 13:46:54;;;;;;;8.00;7.60;;;;;;;;;;5051146;28;21296;-68
2023/03/22 13:49:28;;;;;;;7.83;7.63;;;;;;;;;;5037436;28;20612;-68
2023/03/22 13:51:59;;;;;;;8.10;7.90;;;;;;;;;;5036908;28;20651;-68
2023/03/22 13:54:32;;;;;;;8.83;8.43;;;;;;;;;;5033609;28;20596;-68
2023/03/22 13:57:01;;;;;;;8.20;7.90;;;;;;;;;;5033418;28;20628;-68
2023/03/22 13:59:32;;;;;;;8.37;7.87;;;;;;;;;;5048161;28;21052;-67
2023/03/22 14:02:04;;;;;;;8.30;7.90;;;;;;;;;;5046366;28;20616;-68
2023/03/22 14:04:35;;;;;;;8.77;8.37;;;;;;;;;;5038038;28;20612;-68
2023/03/22 14:07:06;;;;;;;8.70;8.20;;;;;;;;;;5052677;28;21014;-68
2023/03/22 14:09:39;;;;;;;8.23;7.93;;;;;;;;;;5047204;28;20600;-68
2023/03/22 14:12:09;;;;;;;8.60;8.20;;;;;;;;;;5052642;28;20635;-68
2023/03/22 14:14:42;;;;;;;8.60;8.20;;;;;;;;;;5052717;28;20598;-67
2023/03/22 14:17:17;;;;;;;8.67;8.23;;;;;;;;;;5034328;28;20642;-68
2023/03/22 14:19:46;;;;;;;8.60;8.20;;;;;;;;;;5033852;28;20615;-67
2023/03/22 14:22:17;;;;;;;7.97;7.63;;;;;;;;;;5037075;28;21218;-68
2023/03/22 14:24:46;;;;;;;7.80;7.50;;;;;;;;;;5053260;28;20571;-69
2023/03/22 14:27:18;;;;;;;8.77;8.33;;;;;;;;;;5052494;28;21229;-68
2023/03/22 14:29:47;;;;;;;7.70;7.50;;;;;;;;;;5033814;28;20642;-68
2023/03/22 14:32:17;;;;;;;7.97;7.77;;;;;;;;;;5051649;28;20663;-68
2023/03/22 14:34:49;;;;;;;7.40;7.20;;;;;;;;;;5052232;28;20686;-68
2023/03/22 14:37:17;;;;;;;8.50;7.83;;;;;;;;;;5052251;28;20618;-68
2023/03/22 14:39:46;;;;;;;7.67;7.37;;;;;;;;;;5030437;28;21189;-68
2023/03/22 14:42:25;;;;;;;8.20;7.90;;;;;;;;;;5032139;28;20959;-68
2023/03/22 14:44:54;;;;;;;8.53;8.13;;;;;;;;;;5044628;28;20657;-68
2023/03/22 14:47:27;;;;;;;7.90;7.60;;;;;;;;;;5047045;28;20635;-68
2023/03/22 14:49:56;;;;;;;7.77;7.37;;;;;;;;;;5046457;28;20611;-68
2023/03/22 14:52:26;;;;;;;7.93;7.73;;;;;;;;;;5049655;28;20667;-68
2023/03/22 14:54:58;;;;;;;8.00;7.70;;;;;;;;;;5048059;28;20639;-68
2023/03/22 14:57:27;;;;;;;7.80;7.40;;;;;;;;;;5044265;28;20625;-68
2023/03/22 14:59:57;;;;;;;7.60;7.40;;;;;;;;;;5039603;28;20627;-68
2023/03/22 15:02:38;;;;;;;7.80;7.60;;;;;;;;;;5048839;28;20670;-68
2023/03/22 15:05:07;;;;;;;8.27;7.97;;;;;;;;;;5043579;28;20620;-68
2023/03/22 15:07:44;;;;;;;8.30;7.93;;;;;;;;;;5032534;28;21518;-68
2023/03/22 15:10:13;;;;;;;7.90;7.60;;;;;;;;;;5031395;28;20626;-68
2023/03/22 15:12:43;;;;;;;8.50;7.90;;;;;;;;;;5037541;28;20657;-69
2023/03/22 15:15:12;;;;;;;8.60;8.30;;;;;;;;;;5041265;28;20630;-69